Time;durP1;ratioP1;P1;durP2;ratioP2;P2;SDS_P1;SDS_P2;PMS_P1;PMS_P2;Temp;Humidity;BMP_temperature;BMP_pressure;BME280_temperature;BME280_humidity;BME280_pressure;Samples;Min_cycle;Max_cycle;Signal;HPM_P1;HPM_P2
2022/05/20 00:00:27;;;;;;;31.83;19.75;;;;;;;13.70;85.19;102332.28;5045839;28;20013;-76
2022/05/20 00:02:53;;;;;;;33.88;21.92;;;;;;;13.68;84.85;102323.47;5041173;28;20052;-75
2022/05/20 00:05:18;;;;;;;34.13;19.90;;;;;;;13.67;84.88;102324.41;5025817;28;20357;-75
2022/05/20 00:07:43;;;;;;;36.10;20.98;;;;;;;13.68;84.83;102323.47;5025415;28;20080;-75
2022/05/20 00:10:11;;;;;;;38.70;21.27;;;;;;;13.66;85.33;102323.50;5025856;28;20041;-75
2022/05/20 00:12:37;;;;;;;36.42;21.50;;;;;;;13.60;85.44;102313.94;5026187;28;20500;-76
2022/05/20 00:15:06;;;;;;;37.72;21.02;;;;;;;13.60;85.46;102316.59;5025285;28;20083;-74
2022/05/20 00:17:32;;;;;;;39.70;22.23;;;;;;;13.56;85.55;102319.34;5026417;28;20028;-72
2022/05/20 00:19:57;;;;;;;36.75;21.35;;;;;;;13.53;85.56;102328.22;5026987;28;20387;-75
2022/05/20 00:22:22;;;;;;;37.28;21.77;;;;;;;13.55;85.33;102325.53;5030181;28;20480;-75
2022/05/20 00:27:32;;;;;;;39.70;22.17;;;;;;;13.51;85.82;102320.31;5050028;28;20090;-74
2022/05/20 00:29:58;;;;;;;37.25;23.85;;;;;;;13.47;85.82;102330.97;5049779;28;20815;-75
2022/05/20 00:32:23;;;;;;;39.92;21.25;;;;;;;13.48;86.05;102319.47;5031132;28;20025;-75
2022/05/20 00:34:49;;;;;;;41.83;22.98;;;;;;;13.46;85.69;102321.28;5049567;28;20032;-74
2022/05/20 00:37:14;;;;;;;32.08;20.35;;;;;;;13.45;85.98;102317.78;5048501;28;20108;-75
2022/05/20 00:39:39;;;;;;;38.08;22.58;;;;;;;13.43;86.06;102316.94;5029433;28;20055;-74
2022/05/20 00:42:16;;;;;;;44.97;25.80;;;;;;;13.40;86.28;102311.72;5048630;28;20032;-73
2022/05/20 00:44:42;;;;;;;35.75;20.30;;;;;;;13.43;85.83;102313.41;5048045;28;20218;-73
2022/05/20 00:47:08;;;;;;;36.13;20.80;;;;;;;13.48;86.32;102311.53;5049253;28;20059;-74
2022/05/20 00:49:34;;;;;;;32.75;19.35;;;;;;;13.46;86.66;102306.25;5031797;28;20071;-73
2022/05/20 00:52:00;;;;;;;40.90;22.30;;;;;;;13.48;86.36;102308.88;5032147;28;20029;-75
2022/05/20 00:54:28;;;;;;;34.33;20.70;;;;;;;13.48;86.41;102304.47;5043962;28;20043;-74
2022/05/20 00:56:59;;;;;;;41.00;21.80;;;;;;;13.48;86.14;102303.56;5030278;28;20075;-75
2022/05/20 00:59:28;;;;;;;47.22;24.33;;;;;;;13.46;86.52;102308.06;5030091;28;20020;-74
2022/05/20 01:01:55;;;;;;;41.97;24.55;;;;;;;13.43;86.86;102305.47;5031053;28;20533;-74
2022/05/20 01:04:21;;;;;;;42.50;24.45;;;;;;;13.43;86.38;102305.47;5031136;28;20048;-75
2022/05/20 01:06:47;;;;;;;49.58;25.00;;;;;;;13.48;86.65;102300.94;5030059;28;20021;-74
2022/05/20 01:09:12;;;;;;;34.80;19.95;;;;;;;13.51;86.46;102304.44;5048782;28;20128;-74
2022/05/20 01:11:39;;;;;;;39.13;21.13;;;;;;;13.56;86.63;102299.03;5048521;28;20021;-74
2022/05/20 01:14:05;;;;;;;41.17;24.50;;;;;;;13.52;86.64;102294.72;5048014;28;20079;-74
2022/05/20 01:16:31;;;;;;;38.05;22.10;;;;;;;13.57;86.68;102292.81;5049470;28;20025;-75
2022/05/20 01:18:57;;;;;;;41.22;23.52;;;;;;;13.52;86.46;102292.91;5031526;28;20025;-76
2022/05/20 01:21:22;;;;;;;35.47;21.17;;;;;;;13.50;86.65;102276.22;5045790;28;20484;-73
2022/05/20 01:23:48;;;;;;;40.83;23.52;;;;;;;13.48;86.77;102277.97;5047426;28;20029;-75
2022/05/20 01:26:13;;;;;;;37.20;20.13;;;;;;;13.51;86.72;102274.41;5047124;28;20025;-75
2022/05/20 01:28:39;;;;;;;33.67;23.02;;;;;;;13.50;86.62;102264.75;5048611;28;20021;-74
2022/05/20 01:31:08;;;;;;;40.35;24.15;;;;;;;13.51;86.84;102255.88;5047845;28;20020;-75
2022/05/20 01:33:36;;;;;;;39.90;22.10;;;;;;;13.49;86.32;102252.38;5047686;28;20407;-74
2022/05/20 01:36:05;;;;;;;37.22;22.75;;;;;;;13.48;86.22;102255.91;5029514;28;20025;-74
2022/05/20 01:38:31;;;;;;;46.35;24.80;;;;;;;13.50;86.37;102262.97;5048409;28;20025;-75
2022/05/20 01:41:35;;;;;;;42.45;25.17;;;;;;;13.43;86.89;102248.13;5048812;28;20028;-74
2022/05/20 01:44:15;;;;;;;33.63;20.83;;;;;;;13.42;86.64;102242.84;4947716;29;20265;-74
2022/05/20 01:46:49;;;;;;;33.80;20.60;;;;;;;13.38;86.70;102231.44;4947831;29;20027;-74
2022/05/20 01:49:24;;;;;;;36.90;21.58;;;;;;;13.37;86.69;102246.44;4992696;28;20041;-75
2022/05/20 01:52:03;;;;;;;48.03;25.95;;;;;;;13.36;86.93;102251.78;5046960;28;20021;-75
2022/05/20 01:54:41;;;;;;;;;;;;;;;13.30;87.10;102247.50;5046561;28;20032;-75
2022/05/20 01:57:22;;;;;;;38.85;21.80;;;;;;;13.29;86.77;102240.47;5043879;28;20379;-76
2022/05/20 01:59:53;;;;;;;38.95;24.05;;;;;;;13.27;86.83;102255.50;5044898;28;20380;-76
2022/05/20 02:02:25;;;;;;;39.47;24.00;;;;;;;13.22;86.87;102250.31;5029444;28;20052;-75
2022/05/20 02:04:55;;;;;;;40.50;21.77;;;;;;;13.20;87.26;102246.84;5047693;28;20419;-76
2022/05/20 02:07:24;;;;;;;35.65;21.80;;;;;;;13.20;86.86;102240.69;5047099;28;20086;-76
2022/05/20 02:09:57;;;;;;;38.15;24.35;;;;;;;13.17;87.02;102241.63;5028997;28;20048;-76
2022/05/20 02:12:23;;;;;;;34.10;20.35;;;;;;;13.14;87.00;102242.56;5029126;28;20037;-74
2022/05/20 02:14:57;;;;;;;43.53;24.15;;;;;;;13.12;87.13;102244.38;5046464;28;20028;-75
2022/05/20 02:17:44;;;;;;;36.50;21.08;;;;;;;13.17;87.14;102249.56;5045118;28;20078;-75
2022/05/20 02:20:14;;;;;;;37.95;21.73;;;;;;;13.16;87.09;102239.91;5028460;28;20116;-74
2022/05/20 02:22:47;;;;;;;38.53;24.60;;;;;;;13.23;87.24;102240.63;5046917;28;20175;-75
2022/05/20 02:25:16;;;;;;;46.00;26.65;;;;;;;13.21;87.26;102239.75;5029502;28;20029;-76
2022/05/20 02:27:46;;;;;;;35.78;22.33;;;;;;;13.22;87.64;102230.94;5047417;28;20100;-76
2022/05/20 02:30:15;;;;;;;50.22;27.92;;;;;;;13.29;88.12;102239.59;5027588;28;20036;-77
2022/05/20 02:32:57;;;;;;;78.15;36.15;;;;;;;13.28;88.40;102233.44;5043635;28;20321;-74
2022/05/20 02:35:23;;;;;;;61.88;33.47;;;;;;;13.33;88.59;102228.91;5043923;28;20499;-75
2022/05/20 02:37:48;;;;;;;54.72;29.67;;;;;;;13.43;87.66;102220.75;5019060;28;20025;-75
2022/05/20 02:40:16;;;;;;;50.88;28.98;;;;;;;13.45;87.72;102229.53;5036494;28;20044;-74
2022/05/20 02:42:41;;;;;;;65.85;35.08;;;;;;;13.39;87.86;102230.53;5045577;28;20033;-74
2022/05/20 02:45:07;;;;;;;52.03;28.35;;;;;;;13.33;87.57;102234.19;5045021;28;20447;-74
2022/05/20 02:47:34;;;;;;;49.85;27.48;;;;;;;13.31;87.50;102233.38;5047754;28;20029;-74
2022/05/20 02:50:00;;;;;;;58.55;33.00;;;;;;;13.27;87.50;102232.56;5047651;28;20141;-74
2022/05/20 02:52:26;;;;;;;54.63;30.75;;;;;;;13.25;87.68;102223.78;5046421;28;20167;-75
2022/05/20 02:54:51;;;;;;;58.47;32.42;;;;;;;13.22;88.12;102223.00;5047647;28;20123;-76
2022/05/20 02:57:16;;;;;;;61.88;33.08;;;;;;;13.25;87.93;102226.44;5045759;28;20025;-76
2022/05/20 03:05:10;;;;;;;77.40;37.97;;;;;;;13.30;88.57;102228.97;5046618;28;20468;-75
2022/05/20 03:07:36;;;;;;;74.93;40.15;;;;;;;13.40;88.14;102233.16;5046798;28;20061;-75
2022/05/20 03:10:01;;;;;;;75.43;39.03;;;;;;;13.36;88.76;102236.78;5044988;28;20049;-75
2022/05/20 03:12:27;;;;;;;77.35;38.70;;;;;;;13.42;89.10;102237.56;5045799;28;20028;-74
2022/05/20 03:14:52;;;;;;;65.88;35.22;;;;;;;13.50;88.84;102247.09;5045146;28;20079;-76
2022/05/20 03:17:18;;;;;;;65.50;37.40;;;;;;;13.57;88.73;102245.16;5046651;28;20025;-76
2022/05/20 03:19:43;;;;;;;79.75;41.47;;;;;;;13.53;89.43;102248.78;5046617;28;20112;-75
2022/05/20 03:22:09;;;;;;;77.60;41.95;;;;;;;13.56;89.41;102242.53;5044657;28;20024;-74
2022/05/20 03:24:34;;;;;;;65.70;38.05;;;;;;;13.62;89.03;102235.34;5046504;28;20044;-75
2022/05/20 03:27:00;;;;;;;80.70;43.50;;;;;;;13.59;89.03;102238.06;5045792;28;20044;-75
2022/05/20 03:29:25;;;;;;;64.13;37.42;;;;;;;13.62;88.67;102231.81;5027669;28;20460;-75
2022/05/20 03:31:50;;;;;;;72.65;37.50;;;;;;;13.64;88.64;102230.00;5046255;28;20218;-75
2022/05/20 03:34:17;;;;;;;73.43;37.33;;;;;;;13.62;88.75;102234.44;5045412;28;20445;-75
2022/05/20 03:36:48;;;;;;;74.38;42.22;;;;;;;13.64;89.00;102230.84;5046596;28;20021;-72
2022/05/20 03:39:15;;;;;;;76.70;41.97;;;;;;;13.64;89.36;102230.84;5045198;28;20071;-73
2022/05/20 03:41:41;;;;;;;73.53;41.05;;;;;;;13.68;89.00;102220.19;5046128;28;20021;-73
2022/05/20 03:44:08;;;;;;;72.07;41.60;;;;;;;13.70;89.12;102221.03;5045664;28;20037;-73
2022/05/20 03:46:42;;;;;;;63.53;36.97;;;;;;;13.71;89.21;102215.69;5046317;28;20031;-74
2022/05/20 03:49:08;;;;;;;58.45;30.98;;;;;;;13.72;88.62;102211.25;5045442;28;20036;-72
2022/05/20 03:51:35;;;;;;;62.35;34.63;;;;;;;13.71;88.46;102205.09;5045844;28;20028;-71
2022/05/20 03:54:00;;;;;;;58.97;34.30;;;;;;;13.70;88.40;102213.06;5046060;28;20049;-71
2022/05/20 03:56:26;;;;;;;69.70;37.33;;;;;;;13.66;88.34;102203.47;5048209;28;20068;-75
2022/05/20 03:58:51;;;;;;;63.00;34.80;;;;;;;13.70;88.23;102213.06;5049684;28;20127;-75
2022/05/20 04:04:01;;;;;;;69.72;37.95;;;;;;;13.62;88.47;102206.19;5049916;28;20103;-66
2022/05/20 04:06:26;;;;;;;68.80;36.80;;;;;;;13.66;88.20;102198.19;5049913;28;20025;-76
2022/05/20 04:08:52;;;;;;;76.10;38.13;;;;;;;13.62;88.63;102194.72;5032316;28;20743;-74
2022/05/20 04:11:17;;;;;;;71.95;38.03;;;;;;;13.70;88.21;102192.72;5049558;28;20035;-77
2022/05/20 04:13:43;;;;;;;82.88;43.35;;;;;;;13.72;88.21;102177.69;5048463;28;20028;-76
2022/05/20 04:16:09;;;;;;;87.57;46.05;;;;;;;13.69;88.16;102180.41;5049649;28;20066;-74
2022/05/20 04:18:35;;;;;;;86.82;44.85;;;;;;;13.64;88.36;102177.88;5048739;28;20103;-74
2022/05/20 04:21:01;;;;;;;83.18;44.05;;;;;;;13.62;88.60;102194.72;5050481;28;20463;-74
2022/05/20 04:23:27;;;;;;;81.18;43.65;;;;;;;13.62;88.40;102197.38;5049125;28;20060;-74
2022/05/20 04:25:52;;;;;;;107.68;51.20;;;;;;;13.60;88.49;102196.53;5049623;28;20453;-76
2022/05/20 04:28:17;;;;;;;104.53;52.30;;;;;;;13.51;88.95;102202.91;5030053;28;20078;-75
2022/05/20 04:30:43;;;;;;;97.82;47.67;;;;;;;13.58;88.75;102203.66;5049996;28;20106;-76
2022/05/20 04:33:08;;;;;;;95.35;50.38;;;;;;;13.60;88.65;102208.00;5048408;28;20078;-75
2022/05/20 04:35:34;;;;;;;100.28;51.95;;;;;;;13.64;89.06;102209.66;5049507;28;20040;-75
2022/05/20 04:37:59;;;;;;;82.95;43.65;;;;;;;13.69;88.48;102206.91;5049143;28;20024;-75
2022/05/20 04:40:25;;;;;;;91.13;46.75;;;;;;;13.73;88.68;102213.84;5049095;28;20087;-76
2022/05/20 04:48:18;;;;;;;97.68;49.03;;;;;;;13.82;88.39;102215.41;5048186;28;20032;-74
2022/05/20 04:50:43;;;;;;;99.75;50.97;;;;;;;13.82;88.58;102211.91;5049199;28;20025;-75
2022/05/20 04:53:08;;;;;;;86.07;49.28;;;;;;;13.84;88.54;102208.28;5048400;28;20016;-76
2022/05/20 04:55:34;;;;;;;100.63;50.33;;;;;;;13.87;88.65;102216.16;5045468;28;20513;-76
2022/05/20 04:57:59;;;;;;;82.38;43.25;;;;;;;14.08;89.21;102210.31;5028188;28;20130;-74
2022/05/20 05:00:31;;;;;;;79.95;43.50;;;;;;;14.22;89.36;102217.91;5047395;28;20037;-74
2022/05/20 05:02:57;;;;;;;83.78;46.70;;;;;;;14.41;88.33;102218.28;5044494;28;20483;-72
2022/05/20 05:05:25;;;;;;;73.88;44.00;;;;;;;14.58;88.40;102216.91;5036607;28;20035;-71
2022/05/20 05:07:53;;;;;;;73.07;41.22;;;;;;;14.59;87.28;102216.00;5037226;28;20033;-73
2022/05/20 05:10:23;;;;;;;72.40;43.53;;;;;;;14.60;86.85;102218.59;5032062;28;20040;-73
2022/05/20 05:12:49;;;;;;;70.63;39.90;;;;;;;14.56;85.53;102219.63;5048795;28;20507;-75
2022/05/20 05:15:15;;;;;;;66.13;39.28;;;;;;;14.47;85.27;102226.06;5044128;28;20070;-75
2022/05/20 05:20:26;;;;;;;54.10;35.55;;;;;;;14.62;84.93;102223.88;5048454;28;20400;-74
2022/05/20 05:22:53;;;;;;;66.78;41.28;;;;;;;14.44;85.13;102225.25;5030301;28;20471;-75
2022/05/20 05:25:21;;;;;;;61.88;38.03;;;;;;;14.50;85.16;102220.66;5048035;28;20036;-75
2022/05/20 05:27:46;;;;;;;70.82;44.42;;;;;;;14.47;85.18;102211.91;5048575;28;20021;-76
2022/05/20 05:30:12;;;;;;;81.07;45.20;;;;;;;14.38;85.46;102221.88;5047015;28;20040;-75
2022/05/20 05:32:39;;;;;;;78.45;45.40;;;;;;;14.52;85.57;102213.56;5048090;28;20029;-74
2022/05/20 05:35:08;;;;;;;77.80;46.83;;;;;;;14.55;85.58;102220.53;5046960;28;20032;-76
2022/05/20 05:37:34;;;;;;;75.53;45.45;;;;;;;14.52;85.58;102216.19;5047141;28;20029;-71
2022/05/20 05:39:59;;;;;;;72.05;43.30;;;;;;;14.52;86.15;102220.63;5048733;28;20042;-74
2022/05/20 05:42:25;;;;;;;81.40;48.03;;;;;;;14.59;85.70;102210.69;5038409;28;20029;-74
2022/05/20 05:44:52;;;;;;;60.33;37.45;;;;;;;14.70;85.41;102205.09;5046122;28;20434;-76
2022/05/20 05:47:17;;;;;;;79.05;46.33;;;;;;;14.65;85.41;102198.13;5043155;28;20021;-79
2022/05/20 05:49:43;;;;;;;81.55;49.95;;;;;;;14.82;85.52;102204.75;5039297;28;20075;-76
2022/05/20 05:52:08;;;;;;;67.70;40.83;;;;;;;14.97;85.33;102200.78;5037866;28;20017;-72
2022/05/20 05:54:35;;;;;;;63.88;39.92;;;;;;;15.09;85.07;102199.53;5037096;28;20457;-76
2022/05/20 05:57:06;;;;;;;65.53;40.95;;;;;;;15.24;84.20;102202.59;5038644;28;20024;-75
2022/05/20 05:59:31;;;;;;;61.72;41.30;;;;;;;15.28;83.99;102201.59;5037175;28;20026;-66
2022/05/20 06:02:01;;;;;;;63.53;41.90;;;;;;;15.34;83.53;102195.19;5035745;28;20359;-74
2022/05/20 06:04:27;;;;;;;72.70;41.15;;;;;;;15.43;83.41;102197.56;5038714;28;20535;-75
2022/05/20 06:06:53;;;;;;;56.13;38.00;;;;;;;15.75;82.03;102195.59;5038046;28;20117;-74
2022/05/20 06:09:18;;;;;;;48.63;32.22;;;;;;;15.90;81.57;102196.88;5037964;28;20079;-75
2022/05/20 06:11:43;;;;;;;50.33;35.30;;;;;;;16.08;80.82;102197.19;5020147;28;20049;-75
2022/05/20 06:14:09;;;;;;;46.65;32.30;;;;;;;16.23;80.38;102192.25;5036417;28;20013;-74
2022/05/20 06:16:34;;;;;;;48.47;34.05;;;;;;;16.31;79.69;102191.97;5036923;28;20030;-73
2022/05/20 06:19:00;;;;;;;51.45;35.47;;;;;;;16.32;79.56;102178.63;5031985;28;20025;-75
2022/05/20 06:21:26;;;;;;;46.13;31.77;;;;;;;16.41;79.58;102183.56;5026662;28;20396;-76
2022/05/20 06:23:51;;;;;;;45.88;31.08;;;;;;;16.55;78.90;102185.72;5022971;28;20036;-73
2022/05/20 06:26:17;;;;;;;46.40;31.83;;;;;;;16.62;78.50;102185.50;5028663;28;20035;-73
2022/05/20 06:28:42;;;;;;;40.90;30.13;;;;;;;16.72;78.34;102175.34;5045753;28;20032;-74
2022/05/20 06:31:07;;;;;;;43.13;29.80;;;;;;;16.88;77.40;102179.16;5047048;28;20021;-75
2022/05/20 06:33:33;;;;;;;38.28;28.63;;;;;;;17.09;76.71;102179.25;5046341;28;20131;-74
2022/05/20 06:41:26;;;;;;;28.55;21.88;;;;;;;17.71;73.60;102189.19;5047618;28;20048;-77
2022/05/20 06:43:51;;;;;;;28.58;22.33;;;;;;;17.65;72.99;102187.63;5045216;28;20041;-77
2022/05/20 06:46:16;;;;;;;28.08;20.83;;;;;;;17.64;73.12;102180.56;5046602;28;20025;-75
2022/05/20 06:48:49;;;;;;;34.72;21.92;;;;;;;17.63;72.64;102175.28;5046525;28;20091;-77
2022/05/20 06:51:20;;;;;;;36.38;22.17;;;;;;;17.53;73.50;102180.16;5046788;28;20039;-78
2022/05/20 06:53:45;;;;;;;30.15;21.63;;;;;;;17.60;72.84;102186.97;5032892;28;20435;-76
2022/05/20 06:56:12;;;;;;;26.90;19.77;;;;;;;17.46;73.13;102174.19;5026579;28;20021;-75
2022/05/20 06:58:37;;;;;;;25.83;17.65;;;;;;;17.67;72.29;102182.25;5026273;28;20479;-74
2022/05/20 07:01:03;;;;;;;25.98;16.90;;;;;;;17.93;71.55;102170.44;5026391;28;20024;-73
2022/05/20 07:03:29;;;;;;;21.33;15.52;;;;;;;18.24;70.11;102162.88;5036567;28;20031;-73
2022/05/20 07:05:54;;;;;;;18.42;13.75;;;;;;;18.57;69.21;102158.72;5036185;28;20053;-75
2022/05/20 07:08:20;;;;;;;19.50;13.38;;;;;;;18.71;67.76;102154.53;5034536;28;20051;-74
2022/05/20 07:10:45;;;;;;;19.38;12.68;;;;;;;18.63;66.36;102153.09;5036815;28;20021;-74
2022/05/20 07:13:11;;;;;;;14.70;9.65;;;;;;;18.67;67.25;102157.34;5037888;28;20071;-68
2022/05/20 07:15:36;;;;;;;15.20;10.13;;;;;;;19.02;65.27;102153.94;5045277;28;20021;-69
2022/05/20 07:18:02;;;;;;;14.63;8.65;;;;;;;19.37;64.06;102160.28;5026479;28;20029;-66
2022/05/20 07:20:27;;;;;;;19.88;10.00;;;;;;;19.51;62.25;102151.59;5045958;28;20032;-64
2022/05/20 07:22:53;;;;;;;14.85;9.73;;;;;;;19.54;62.79;102148.75;5044326;28;20140;-65
2022/05/20 07:25:19;;;;;;;14.30;7.72;;;;;;;19.73;63.49;102135.28;5045360;28;20025;-67
2022/05/20 07:27:45;;;;;;;17.15;10.10;;;;;;;19.76;62.22;102132.47;5040397;28;20035;-66
2022/05/20 07:30:11;;;;;;;12.75;8.90;;;;;;;19.85;61.17;102120.41;5031937;28;20024;-66
2022/05/20 07:32:36;;;;;;;10.85;7.93;;;;;;;19.73;61.20;102127.28;5030416;28;20104;-66
2022/05/20 07:35:02;;;;;;;11.18;6.85;;;;;;;20.06;60.36;102122.91;5018569;28;20109;-66
2022/05/20 07:37:27;;;;;;;12.50;7.13;;;;;;;20.12;59.76;102116.34;5027612;28;20039;-67
2022/05/20 07:39:53;;;;;;;8.80;7.28;;;;;;;19.98;59.29;102119.78;5044291;28;20112;-67
2022/05/20 07:42:18;;;;;;;11.27;8.32;;;;;;;20.09;58.88;102112.03;5044986;28;20036;-65
2022/05/20 07:44:44;;;;;;;11.90;7.32;;;;;;;20.18;59.12;102100.84;5039221;28;20036;-67
2022/05/20 07:47:10;;;;;;;14.10;8.20;;;;;;;20.41;59.26;102096.00;5037710;28;20025;-66
2022/05/20 07:49:35;;;;;;;17.20;7.55;;;;;;;20.57;59.24;102084.44;5036166;28;20371;-67
2022/05/20 07:52:03;;;;;;;13.45;8.57;;;;;;;20.39;59.77;102076.50;5036825;28;20357;-67
2022/05/20 07:54:31;;;;;;;15.40;9.00;;;;;;;20.38;59.57;102073.91;5016439;28;20040;-66
2022/05/20 07:57:00;;;;;;;14.82;10.27;;;;;;;20.05;60.72;102068.53;5027224;28;20491;-65
2022/05/20 07:59:30;;;;;;;13.77;10.45;;;;;;;20.16;60.29;102075.97;5025364;28;20387;-65
2022/05/20 08:01:56;;;;;;;15.15;9.45;;;;;;;20.41;59.95;102085.31;5025569;28;20079;-65
2022/05/20 08:07:13;;;;;;;13.95;9.82;;;;;;;20.51;60.15;102082.13;5028752;28;20541;-70
2022/05/20 08:09:38;;;;;;;14.85;9.40;;;;;;;20.54;60.49;102068.56;5007827;28;1052850;-66
2022/05/20 08:12:04;;;;;;;15.27;9.15;;;;;;;20.62;60.35;102063.63;5045285;28;20041;-68
2022/05/20 08:14:29;;;;;;;12.93;8.80;;;;;;;20.61;58.19;102061.91;5044910;28;20070;-75
2022/05/20 08:16:59;;;;;;;13.32;7.72;;;;;;;20.95;58.55;102059.97;5045896;28;20045;-62
2022/05/20 08:19:25;;;;;;;10.43;6.97;;;;;;;21.41;57.78;102063.53;5044774;28;20025;-63
2022/05/20 08:21:50;;;;;;;11.77;8.65;;;;;;;21.32;57.69;102070.31;5045336;28;20059;-61
2022/05/20 08:24:15;;;;;;;13.43;8.13;;;;;;;21.62;57.18;102062.31;5044493;28;20033;-64
2022/05/20 08:26:41;;;;;;;20.80;8.02;;;;;;;21.70;57.27;102058.19;5025101;28;20113;-63
2022/05/20 08:29:06;;;;;;;14.60;7.85;;;;;;;22.18;55.14;102048.09;5021846;28;20053;-63
2022/05/20 08:31:33;;;;;;;14.90;7.03;;;;;;;21.98;55.82;102041.34;5024946;28;20104;-63
2022/05/20 08:33:59;;;;;;;12.95;8.18;;;;;;;21.78;55.10;102038.09;5012539;28;20040;-63
2022/05/20 08:36:25;;;;;;;16.65;6.97;;;;;;;21.83;56.29;102033.31;5025682;28;20110;-62
2022/05/20 08:38:51;;;;;;;11.07;7.55;;;;;;;21.93;55.54;102026.41;5024163;28;20056;-63
2022/05/20 08:41:22;;;;;;;11.35;7.13;;;;;;;22.10;56.22;102011.03;5025335;28;20029;-63
2022/05/20 08:43:48;;;;;;;9.85;6.40;;;;;;;22.36;55.12;102005.78;5027295;28;20112;-62
2022/05/20 08:46:15;;;;;;;9.93;7.05;;;;;;;22.22;54.64;101996.81;5014157;28;20603;-64
2022/05/20 08:48:42;;;;;;;7.75;6.25;;;;;;;22.28;55.13;101986.63;5030077;28;20016;-66
2022/05/20 08:51:07;;;;;;;10.25;6.20;;;;;;;22.05;56.71;101975.56;5031531;28;20029;-68
2022/05/20 08:53:35;;;;;;;10.85;7.45;;;;;;;22.26;55.26;101961.72;5030983;28;20067;-66
2022/05/20 08:56:05;;;;;;;12.40;5.82;;;;;;;22.34;54.27;101964.75;5031870;28;20438;-67
2022/05/20 08:58:31;;;;;;;11.18;6.07;;;;;;;22.57;54.48;101947.13;5047884;28;20036;-67
2022/05/20 09:00:57;;;;;;;8.27;5.97;;;;;;;22.54;53.56;101931.19;5049188;28;20697;-66
2022/05/20 09:03:22;;;;;;;10.30;5.95;;;;;;;22.67;53.77;101927.69;5048084;28;20029;-67
2022/05/20 09:05:48;;;;;;;12.35;7.18;;;;;;;22.80;53.30;101935.75;5049270;28;20028;-67
2022/05/20 09:08:24;;;;;;;11.15;7.60;;;;;;;22.66;54.93;101937.56;5029583;28;20112;-69
2022/05/20 09:10:57;;;;;;;10.43;6.80;;;;;;;22.58;54.74;101945.31;5041903;28;20025;-64
2022/05/20 09:16:30;;;;;;;10.20;5.10;;;;;;;22.71;53.27;101946.19;5028548;28;20045;-62
2022/05/20 09:19:09;;;;;;;10.38;6.68;;;;;;;22.49;54.56;101936.03;5027535;28;20517;-61
2022/05/20 09:21:41;;;;;;;8.20;6.15;;;;;;;22.61;54.16;101941.53;5020511;28;20041;-66
2022/05/20 09:24:19;;;;;;;13.30;5.90;;;;;;;22.58;53.83;101939.94;5036258;28;20029;-62
2022/05/20 09:26:48;;;;;;;15.50;6.27;;;;;;;22.58;53.29;101935.41;5029285;28;20025;-64
2022/05/20 09:29:26;;;;;;;11.13;6.20;;;;;;;22.78;54.71;101941.25;5009999;28;20044;-66
2022/05/20 09:31:58;;;;;;;13.10;6.03;;;;;;;22.58;53.95;101931.88;5025976;28;20033;-62
2022/05/20 09:34:26;;;;;;;15.40;5.35;;;;;;;22.88;53.62;101922.69;5015274;28;20071;-60
2022/05/20 09:37:00;;;;;;;18.25;6.88;;;;;;;22.88;52.34;101911.94;5009325;28;20471;-62
2022/05/20 09:39:36;;;;;;;13.77;4.93;;;;;;;23.14;52.00;101909.22;5007445;28;20396;-64
2022/05/20 09:42:13;;;;;;;8.18;5.10;;;;;;;22.95;52.15;101899.78;5020573;28;20462;-61
2022/05/20 09:44:41;;;;;;;10.75;4.40;;;;;;;22.78;52.52;101897.41;5018430;28;20372;-64
2022/05/20 09:47:25;;;;;;;8.53;3.87;;;;;;;23.02;51.87;101892.13;5025334;28;20563;-63
2022/05/20 09:50:19;;;;;;;11.07;4.38;;;;;;;22.78;50.39;101892.06;5017668;28;20314;-61
2022/05/20 09:52:44;;;;;;;7.93;4.05;;;;;;;22.89;50.95;101875.16;5026799;28;20116;-63
2022/05/20 09:55:14;;;;;;;8.77;4.20;;;;;;;23.02;49.65;101872.47;5025515;28;20170;-61
2022/05/20 09:57:46;;;;;;;5.82;4.03;;;;;;;23.17;50.36;101860.63;5024155;28;21235;-62
2022/05/20 10:00:20;;;;;;;14.13;4.43;;;;;;;23.29;49.87;101845.44;5019124;28;20033;-63
2022/05/20 10:02:56;;;;;;;9.23;5.28;;;;;;;23.15;50.67;101835.66;5012041;28;20055;-65
2022/05/20 10:05:35;;;;;;;9.85;4.60;;;;;;;23.12;51.14;101832.34;5016330;28;20056;-63
2022/05/20 10:08:11;;;;;;;10.57;4.05;;;;;;;23.39;49.69;101815.22;4995674;28;20036;-62
2022/05/20 10:10:43;;;;;;;7.68;4.72;;;;;;;23.36;50.18;101805.53;5004401;28;20095;-63
2022/05/20 10:13:21;;;;;;;7.00;4.50;;;;;;;23.31;51.00;101810.38;5026982;28;20063;-63
2022/05/20 10:15:49;;;;;;;8.93;4.47;;;;;;;23.67;49.69;101814.03;5009480;28;20039;-62
2022/05/20 10:18:40;;;;;;;8.07;5.30;;;;;;;23.83;49.78;101804.78;5006384;28;20464;-63
2022/05/20 10:21:37;;;;;;;9.10;4.97;;;;;;;23.84;47.82;101801.16;5017038;28;20432;-63
2022/05/20 10:24:13;;;;;;;11.10;5.25;;;;;;;23.69;49.63;101785.16;4999333;28;20440;-64
2022/05/20 10:26:50;;;;;;;5.78;3.65;;;;;;;23.86;47.92;101766.88;5016952;28;20179;-62
2022/05/20 10:34:57;;;;;;;7.75;5.65;;;;;;;23.54;50.02;101709.16;5027638;28;20474;-63
2022/05/20 10:37:40;;;;;;;10.90;6.70;;;;;;;23.82;50.32;101698.16;5008533;28;20009;-62
2022/05/20 10:40:24;;;;;;;13.45;5.90;;;;;;;23.81;49.71;101686.50;5026586;28;20068;-62
2022/05/20 10:43:10;;;;;;;10.68;6.57;;;;;;;23.89;50.06;101687.75;5024083;28;20033;-63
2022/05/20 10:48:49;;;;;;;9.55;6.28;;;;;;;23.42;50.72;101684.06;5026412;28;20040;-64
2022/05/20 10:51:36;;;;;;;12.02;6.25;;;;;;;22.89;52.85;101668.25;5008726;28;20871;-63
2022/05/20 10:54:17;;;;;;;9.90;6.28;;;;;;;22.82;52.79;101662.50;5024613;28;20082;-62
2022/05/20 10:57:10;;;;;;;7.43;5.28;;;;;;;22.64;51.89;101662.00;5018713;28;20499;-61
2022/05/20 11:00:09;;;;;;;9.82;5.70;;;;;;;22.49;51.40;101648.69;5039157;28;20032;-62
2022/05/20 11:02:40;;;;;;;11.75;5.70;;;;;;;22.50;50.30;101636.13;5027743;28;20040;-63
2022/05/20 11:05:43;;;;;;;10.95;5.85;;;;;;;22.24;52.29;101625.44;5045749;28;20104;-73
2022/05/20 11:08:36;;;;;;;11.48;6.35;;;;;;;22.29;51.80;101612.53;4988629;28;20049;-73
2022/05/20 11:11:23;;;;;;;10.73;5.68;;;;;;;22.45;51.59;101602.41;5045557;28;20036;-71
2022/05/20 11:14:15;;;;;;;13.88;6.35;;;;;;;22.66;51.18;101576.81;5045234;28;20028;-72
2022/05/20 11:17:02;;;;;;;8.98;5.88;;;;;;;22.91;50.68;101580.34;5045900;28;20163;-72
2022/05/20 11:19:46;;;;;;;10.70;5.90;;;;;;;22.80;50.33;101570.41;5046259;28;20499;-72
2022/05/20 11:22:45;;;;;;;10.82;5.97;;;;;;;23.03;49.45;101567.81;5045657;28;20040;-72
2022/05/20 11:25:48;;;;;;;10.60;5.97;;;;;;;22.78;52.17;101569.69;5045728;28;20040;-72
2022/05/20 11:28:25;;;;;;;9.98;6.03;;;;;;;23.03;51.47;101562.44;5044831;28;20475;-72
2022/05/20 11:31:20;;;;;;;14.25;6.38;;;;;;;22.71;51.38;101559.38;5046003;28;20036;-72
2022/05/20 11:34:08;;;;;;;12.50;5.93;;;;;;;22.65;51.53;101543.72;5045691;28;20059;-70
2022/05/20 11:37:02;;;;;;;13.02;6.20;;;;;;;22.21;52.10;101529.88;5043632;28;20044;-71
2022/05/20 11:39:52;;;;;;;12.07;6.35;;;;;;;21.93;54.23;101534.56;5046086;28;20025;-71
2022/05/20 11:42:42;;;;;;;14.13;7.65;;;;;;;21.58;55.19;101544.09;5024018;28;20690;-71
2022/05/20 11:45:47;;;;;;;50.10;13.95;;;;;;;21.29;56.53;101563.06;5027676;28;20013;-71
2022/05/20 11:48:20;;;;;;;11.65;6.75;;;;;;;21.23;55.57;101555.44;5044572;28;20025;-70
2022/05/20 11:50:54;;;;;;;15.82;6.85;;;;;;;21.13;55.13;101525.75;5045559;28;20039;-66
2022/05/20 11:53:37;;;;;;;14.25;8.15;;;;;;;20.59;58.55;101506.94;5038137;28;20036;-69
2022/05/20 11:56:16;;;;;;;15.68;6.50;;;;;;;20.58;58.77;101507.88;5017961;28;20082;-67
2022/05/20 11:58:50;;;;;;;12.10;6.07;;;;;;;20.49;59.71;101504.00;5036379;28;20560;-68
2022/05/20 12:01:15;;;;;;;10.00;6.43;;;;;;;20.30;61.26;101505.22;5035255;28;20038;-69
2022/05/20 12:06:27;;;;;;;15.23;8.52;;;;;;;19.90;63.42;101519.28;5011210;28;20087;-64